createdAt,value
2019-01-24T00:00:40.855Z,50.7
2019-01-24T00:01:30.637Z,50.7
2019-01-24T00:02:20.979Z,50.7
2019-01-24T00:03:10.757Z,50.7
2019-01-24T00:04:00.819Z,50.7
2019-01-24T00:04:51.140Z,50.7
2019-01-24T00:05:41.211Z,50.7
2019-01-24T00:06:31.251Z,50.7
2019-01-24T00:07:20.776Z,50.7
2019-01-24T00:08:11.095Z,50.6
2019-01-24T00:09:00.909Z,50.6
2019-01-24T00:09:51.501Z,50.6
2019-01-24T00:10:41.549Z,50.6
2019-01-24T00:11:31.333Z,50.6
2019-01-24T00:12:21.663Z,50.6
2019-01-24T00:13:11.456Z,50.6
2019-01-24T00:14:01.506Z,50.6
2019-01-24T00:14:51.848Z,50.6
2019-01-24T00:15:41.628Z,50.6
2019-01-24T00:16:31.149Z,50.6
2019-01-24T00:17:21.738Z,50.6
2019-01-24T00:18:11.921Z,50.6
2019-01-24T00:19:02.133Z,50.6
2019-01-24T00:19:52.200Z,50.6
2019-01-24T00:20:41.718Z,50.6
2019-01-24T00:21:32.028Z,50.6
2019-01-24T00:22:22.093Z,50.6
2019-01-24T00:23:12.196Z,50.6
2019-01-24T00:24:02.445Z,50.6
2019-01-24T00:24:51.970Z,50.6
2019-01-24T00:25:42.345Z,50.5
2019-01-24T00:26:31.244Z,50.6
2019-01-24T00:27:22.443Z,50.5
2019-01-24T00:28:12.756Z,50.5
2019-01-24T00:29:02.822Z,50.5
2019-01-24T00:29:52.858Z,50.5
2019-01-24T00:30:42.658Z,50.5
2019-01-24T00:31:32.982Z,50.5
2019-01-24T00:32:22.774Z,50.5
2019-01-24T00:33:12.822Z,50.5
2019-01-24T00:34:03.237Z,50.5
2019-01-24T00:34:52.096Z,50.4
2019-01-24T00:35:43.028Z,50.5
2019-01-24T00:36:33.085Z,50.5
2019-01-24T00:37:22.837Z,50.4
2019-01-24T00:38:13.197Z,50.4
2019-01-24T00:39:03.504Z,50.4
2019-01-24T00:39:53.562Z,50.4
2019-01-24T00:40:43.054Z,50.4
2019-01-24T00:41:33.376Z,50.4
2019-01-24T00:42:23.780Z,50.4
2019-01-24T00:43:13.845Z,50.4
2019-01-24T00:44:03.559Z,50.4
2019-01-24T00:44:53.912Z,50.4
2019-01-24T00:45:43.677Z,50.4
2019-01-24T00:46:33.734Z,50.4
2019-01-24T00:47:23.582Z,50.4
2019-01-24T00:48:13.644Z,50.4
2019-01-24T00:49:03.438Z,50.4
2019-01-24T00:49:53.947Z,50.4
2019-01-24T00:50:43.559Z,50.4
2019-01-24T00:51:33.881Z,50.4
2019-01-24T00:52:23.651Z,50.4
2019-01-24T00:53:13.991Z,50.4
2019-01-24T00:54:03.528Z,50.4
2019-01-24T00:54:54.091Z,50.3
2019-01-24T00:55:43.926Z,50.3
2019-01-24T00:56:33.394Z,50.3
2019-01-24T00:57:23.727Z,50.3
2019-01-24T00:58:14.066Z,50.3
2019-01-24T00:59:03.881Z,50.3
2019-01-24T00:59:54.491Z,50.3
2019-01-24T01:00:44.236Z,50.3
2019-01-24T01:01:34.553Z,50.3
2019-01-24T01:02:24.622Z,50.3
2019-01-24T01:03:14.401Z,50.3
2019-01-24T01:04:04.738Z,50.3
2019-01-24T01:04:54.788Z,50.3
2019-01-24T01:05:44.579Z,50.3
2019-01-24T01:06:34.900Z,50.3
2019-01-24T01:07:24.973Z,50.3
2019-01-24T01:08:15.538Z,50.3
2019-01-24T01:09:05.575Z,50.3
2019-01-24T01:09:54.912Z,50.3
2019-01-24T01:10:45.405Z,50.3
2019-01-24T01:11:35.260Z,50.3
2019-01-24T01:12:25.532Z,50.3
2019-01-24T01:13:15.292Z,50.2
2019-01-24T01:14:05.632Z,50.3
2019-01-24T01:14:55.212Z,50.3
2019-01-24T01:15:45.285Z,50.2
2019-01-24T01:16:35.608Z,50.2
2019-01-24T01:17:25.867Z,50.2
2019-01-24T01:18:15.947Z,50.2
2019-01-24T01:19:05.982Z,50.2
2019-01-24T01:19:56.312Z,50.2
2019-01-24T01:20:46.082Z,50.2
2019-01-24T01:21:36.152Z,50.2
2019-01-24T01:22:26.201Z,50.2
2019-01-24T01:23:15.992Z,50.1
2019-01-24T01:24:06.600Z,50.1
2019-01-24T01:24:56.413Z,50.1
2019-01-24T01:25:46.711Z,50.1
2019-01-24T01:26:36.251Z,50.1
2019-01-24T01:27:26.826Z,50.1
2019-01-24T01:28:15.842Z,50.1
2019-01-24T01:29:06.662Z,50.1
2019-01-24T01:29:56.996Z,50.1
2019-01-24T01:30:46.769Z,50.1
2019-01-24T01:31:36.818Z,50.1
2019-01-24T01:32:26.889Z,50.1
2019-01-24T01:33:17.223Z,50.1
2019-01-24T01:34:06.452Z,50.1
2019-01-24T01:34:57.066Z,50.1
2019-01-24T01:35:47.393Z,50.1
2019-01-24T01:36:37.180Z,50.1
2019-01-24T01:37:27.233Z,50.1
2019-01-24T01:38:18.941Z,50.1
2019-01-24T01:39:07.616Z,50.1
2019-01-24T01:39:57.401Z,50.1
2019-01-24T01:40:47.775Z,50
2019-01-24T01:41:36.973Z,50
2019-01-24T01:42:27.295Z,50
2019-01-24T01:43:17.646Z,50
2019-01-24T01:44:07.963Z,50.1
2019-01-24T01:44:57.205Z,50
2019-01-24T01:45:48.115Z,50
2019-01-24T01:46:37.859Z,50
2019-01-24T01:47:27.647Z,50
2019-01-24T01:48:18.257Z,50
2019-01-24T01:49:07.758Z,50
2019-01-24T01:49:58.367Z,50
2019-01-24T01:50:48.482Z,49.9
2019-01-24T01:51:37.938Z,50
2019-01-24T01:52:28.545Z,50
2019-01-24T01:53:18.617Z,49.9
2019-01-24T01:54:07.835Z,49.9
2019-01-24T01:54:58.445Z,49.9
2019-01-24T01:55:48.542Z,49.9
2019-01-24T01:56:38.877Z,49.9
2019-01-24T01:57:28.601Z,49.9
2019-01-24T01:58:18.944Z,49.9
2019-01-24T01:59:08.715Z,49.9
2019-01-24T01:59:58.509Z,49.9
2019-01-24T02:00:49.119Z,49.9
2019-01-24T02:01:38.932Z,49.9
2019-01-24T02:02:29.234Z,49.9
2019-01-24T02:03:19.291Z,49.9
2019-01-24T02:04:09.352Z,49.9
2019-01-24T02:04:59.401Z,49.9
2019-01-24T02:05:49.199Z,49.9
2019-01-24T02:06:39.339Z,49.9
2019-01-24T02:07:29.310Z,49.9
2019-01-24T02:08:19.089Z,49.8
2019-01-24T02:09:09.416Z,49.9
2019-01-24T02:09:59.204Z,49.8
2019-01-24T02:10:49.817Z,49.8
2019-01-24T02:11:39.664Z,49.8
2019-01-24T02:12:29.921Z,49.8
2019-01-24T02:13:19.983Z,49.8
2019-01-24T02:14:09.523Z,49.8
2019-01-24T02:15:00.211Z,49.8
2019-01-24T02:15:50.153Z,49.8
2019-01-24T02:16:40.246Z,49.8
2019-01-24T02:17:29.998Z,49.8
2019-01-24T02:18:20.048Z,49.8
2019-01-24T02:19:10.167Z,49.8
2019-01-24T02:20:00.239Z,49.8
2019-01-24T02:20:50.228Z,49.8
2019-01-24T02:21:40.290Z,49.8
2019-01-24T02:22:30.615Z,49.8
2019-01-24T02:23:20.133Z,49.8
2019-01-24T02:24:10.488Z,49.8
2019-01-24T02:25:00.800Z,49.8
2019-01-24T02:25:50.838Z,49.8
2019-01-24T02:26:40.634Z,49.7
2019-01-24T02:27:30.700Z,49.7
2019-01-24T02:28:21.020Z,49.7
2019-01-24T02:29:10.798Z,49.7
2019-01-24T02:30:01.419Z,49.7
2019-01-24T02:30:51.198Z,49.7
2019-01-24T02:31:40.985Z,49.7
2019-01-24T02:32:31.058Z,49.7
2019-01-24T02:33:20.822Z,49.7
2019-01-24T02:34:10.875Z,49.7
2019-01-24T02:35:01.550Z,49.7
2019-01-24T02:35:51.032Z,49.7
2019-01-24T02:36:41.347Z,49.7
2019-01-24T02:37:31.367Z,49.7
2019-01-24T02:38:21.165Z,49.6
2019-01-24T02:39:11.815Z,49.6
2019-01-24T02:40:01.837Z,49.6
2019-01-24T02:40:51.078Z,49.6
2019-01-24T02:41:41.951Z,49.6
2019-01-24T02:42:31.459Z,49.6
2019-01-24T02:43:21.546Z,49.6
2019-01-24T02:44:12.136Z,49.6
2019-01-24T02:45:02.079Z,49.6
2019-01-24T02:45:52.280Z,49.6
2019-01-24T02:46:41.497Z,49.6
2019-01-24T02:47:32.071Z,49.6
2019-01-24T02:48:22.435Z,49.6
2019-01-24T02:49:12.298Z,49.6
2019-01-24T02:50:02.464Z,49.6
2019-01-24T02:50:52.341Z,49.6
2019-01-24T02:51:42.101Z,49.6
2019-01-24T02:52:31.864Z,49.6
2019-01-24T02:53:22.201Z,49.6
2019-01-24T02:54:12.298Z,49.6
2019-01-24T02:55:02.728Z,49.6
2019-01-24T02:55:52.626Z,49.5
2019-01-24T02:56:42.693Z,49.5
2019-01-24T02:57:33.093Z,49.6
2019-01-24T02:58:23.096Z,49.6
2019-01-24T02:59:13.145Z,49.7
2019-01-24T03:00:03.298Z,49.8
2019-01-24T03:00:52.724Z,49.9
2019-01-24T03:01:43.043Z,50.1
2019-01-24T03:02:33.664Z,50.3
2019-01-24T03:03:23.480Z,50.4
2019-01-24T03:04:13.500Z,50.5
2019-01-24T03:05:03.286Z,50.6
2019-01-24T03:08:36.100Z,51.4
2019-01-24T03:09:26.109Z,51.7
2019-01-24T03:10:16.113Z,51.9
2019-01-24T03:11:56.507Z,52.1
2019-01-24T03:12:46.564Z,52.3
2019-01-24T03:13:36.335Z,52.4
2019-01-24T03:14:26.735Z,52.6
2019-01-24T03:15:16.209Z,52.8
2019-01-24T03:16:06.245Z,52.9
2019-01-24T03:16:56.862Z,53.1
2019-01-24T03:17:46.912Z,53.3
2019-01-24T03:18:36.714Z,53.4
2019-01-24T03:19:26.796Z,53.6
2019-01-24T03:20:16.544Z,53.7
2019-01-24T03:21:07.156Z,53.9
2019-01-24T03:21:57.196Z,54.2
2019-01-24T03:22:46.976Z,54.3
2019-01-24T03:23:37.030Z,54.5
2019-01-24T03:24:27.381Z,54.6
2019-01-24T03:25:16.881Z,54.8
2019-01-24T03:26:07.213Z,54.9
2019-01-24T03:26:57.271Z,55.1
2019-01-24T03:27:47.629Z,55.2
2019-01-24T03:28:37.404Z,55.3
2019-01-24T03:29:27.431Z,55.4
2019-01-24T03:30:17.652Z,55.4
2019-01-24T03:31:07.342Z,55.4
2019-01-24T03:31:57.985Z,55.4
2019-01-24T03:32:47.818Z,55.4
2019-01-24T03:33:37.815Z,55.4
2019-01-24T03:34:28.109Z,55.4
2019-01-24T03:35:18.186Z,55.5
2019-01-24T03:36:08.185Z,55.5
2019-01-24T03:36:57.945Z,55.5
2019-01-24T03:37:47.740Z,55.5
2019-01-24T03:38:37.798Z,55.4
2019-01-24T03:39:28.428Z,55.5
2019-01-24T03:40:17.975Z,55.5
2019-01-24T03:41:08.570Z,55.4
2019-01-24T03:41:58.569Z,55.5
2019-01-24T03:42:48.648Z,55.5
2019-01-24T03:43:38.680Z,55.4
2019-01-24T03:44:28.485Z,55.4
2019-01-24T03:45:18.583Z,55.4
2019-01-24T03:46:08.858Z,55.4
2019-01-24T03:46:58.677Z,55.4
2019-01-24T03:47:49.006Z,55.4
2019-01-24T03:48:39.027Z,55.4
2019-01-24T03:49:28.527Z,55.4
2019-01-24T03:50:19.162Z,55.4
2019-01-24T03:51:08.977Z,55.4
2019-01-24T03:51:59.257Z,55.4
2019-01-24T03:52:49.357Z,55.4
2019-01-24T03:53:39.391Z,55.4
2019-01-24T03:54:29.499Z,55.4
2019-01-24T03:55:18.946Z,55.4
2019-01-24T03:56:09.247Z,55.4
2019-01-24T03:56:59.050Z,55.4
2019-01-24T03:57:49.452Z,55.4
2019-01-24T03:58:39.716Z,55.4
2019-01-24T03:59:29.544Z,55.4
2019-01-24T04:00:19.592Z,55.4
2019-01-24T04:01:09.945Z,55.4
2019-01-24T04:01:59.939Z,55.4
2019-01-24T04:02:49.458Z,55.4
2019-01-24T04:03:40.064Z,55.4
2019-01-24T04:04:29.589Z,55.4
2019-01-24T04:05:20.190Z,55.4
2019-01-24T04:06:09.949Z,55.4
2019-01-24T04:07:00.089Z,55.4
2019-01-24T04:07:49.843Z,55.4
2019-01-24T04:08:39.875Z,55.4
2019-01-24T04:09:30.200Z,55.4
2019-01-24T04:10:20.546Z,55.3
2019-01-24T04:11:09.739Z,55.4
2019-01-24T04:12:00.651Z,55.4
2019-01-24T04:12:50.693Z,55.4
2019-01-24T04:13:40.198Z,55.3
2019-01-24T04:14:30.518Z,55.3
2019-01-24T04:15:20.965Z,55.3
2019-01-24T04:16:10.971Z,55.3
2019-01-24T04:17:00.985Z,55.3
2019-01-24T04:17:51.080Z,55.3
2019-01-24T04:18:40.552Z,55.3
2019-01-24T04:19:30.958Z,55.3
2019-01-24T04:20:20.966Z,55.3
2019-01-24T04:21:10.983Z,55.3
2019-01-24T04:22:01.079Z,55.3
2019-01-24T04:22:51.416Z,55.3
2019-01-24T04:23:41.158Z,55.3
2019-01-24T04:24:31.208Z,55.3
2019-01-24T04:25:21.836Z,55.3
2019-01-24T04:26:11.060Z,55.3
2019-01-24T04:27:01.132Z,55.3
2019-01-24T04:27:51.499Z,55.3
2019-01-24T04:28:41.267Z,55.3
2019-01-24T04:29:31.597Z,55.3
2019-01-24T04:30:21.664Z,55.3
2019-01-24T04:31:11.667Z,55.3
2019-01-24T04:32:02.037Z,55.3
2019-01-24T04:32:52.093Z,55.2
2019-01-24T04:33:41.844Z,55.2
2019-01-24T04:34:32.182Z,55.2
2019-01-24T04:35:25.055Z,55.2
2019-01-24T04:36:12.312Z,55.2
2019-01-24T04:37:01.886Z,55.2
2019-01-24T04:37:52.179Z,55.2
2019-01-24T04:38:42.211Z,55.2
2019-01-24T04:39:32.259Z,55.2
2019-01-24T04:40:22.319Z,55.2
2019-01-24T04:41:12.109Z,55.2
2019-01-24T04:42:02.717Z,55.2
2019-01-24T04:42:52.511Z,55.1
2019-01-24T04:43:42.559Z,55.1
2019-01-24T04:44:32.596Z,55.1
2019-01-24T04:45:22.982Z,55.1
2019-01-24T04:46:12.441Z,55.1
2019-01-24T04:47:03.048Z,55.1
2019-01-24T04:47:52.148Z,55.1
2019-01-24T04:48:42.644Z,55.1
2019-01-24T04:49:31.933Z,55.1
2019-01-24T04:50:22.366Z,55.1
2019-01-24T04:51:12.606Z,55.1
2019-01-24T04:52:02.679Z,55.1
2019-01-24T04:52:52.435Z,55.1
2019-01-24T04:53:43.034Z,55.1
2019-01-24T04:54:32.810Z,55.1
2019-01-24T04:55:22.446Z,55.1
2019-01-24T04:56:13.303Z,55.1
2019-01-24T04:57:02.973Z,55.1
2019-01-24T04:57:54.849Z,55.1
2019-01-24T04:58:43.398Z,55.1
2019-01-24T04:59:33.012Z,55.1
2019-01-24T05:00:23.245Z,55.1
2019-01-24T05:01:12.493Z,55.1
2019-01-24T05:02:03.361Z,55.1
2019-01-24T05:02:53.442Z,55.1
2019-01-24T05:03:43.430Z,55.1
2019-01-24T05:04:33.239Z,55
2019-01-24T05:05:31.389Z,55
2019-01-24T05:06:14.007Z,55
2019-01-24T05:07:04.045Z,55
2019-01-24T05:07:53.765Z,55
2019-01-24T05:08:43.849Z,55
2019-01-24T05:09:33.590Z,55
2019-01-24T05:10:24.285Z,55
2019-01-24T05:11:13.697Z,55
2019-01-24T05:12:04.031Z,55
2019-01-24T05:12:54.602Z,54.9
2019-01-24T05:13:44.399Z,55
2019-01-24T05:14:34.664Z,54.9
2019-01-24T05:15:24.469Z,54.9
2019-01-24T05:16:14.807Z,54.9
2019-01-24T05:17:04.296Z,54.9
2019-01-24T05:17:55.226Z,54.9
2019-01-24T05:18:44.954Z,54.9
2019-01-24T05:19:34.736Z,54.9
2019-01-24T05:20:25.127Z,54.9
2019-01-24T05:21:15.131Z,54.9
2019-01-24T05:22:05.461Z,54.9
2019-01-24T05:22:55.286Z,54.9
2019-01-24T05:23:45.636Z,54.9
2019-01-24T05:24:35.622Z,54.9
2019-01-24T05:25:25.716Z,54.9
2019-01-24T05:26:15.519Z,54.9
2019-01-24T05:27:05.260Z,54.9
2019-01-24T05:27:55.678Z,54.9
2019-01-24T05:28:45.637Z,54.9
2019-01-24T05:29:35.420Z,54.9
2019-01-24T05:30:25.814Z,54.9
2019-01-24T05:31:15.824Z,54.9
2019-01-24T05:32:06.168Z,54.8
2019-01-24T05:32:57.545Z,54.9
2019-01-24T05:33:45.994Z,54.8
2019-01-24T05:34:36.342Z,54.8
2019-01-24T05:35:26.173Z,54.8
2019-01-24T05:36:16.451Z,54.8
2019-01-24T05:37:05.954Z,54.8
2019-01-24T05:37:56.584Z,54.8
2019-01-24T05:38:46.614Z,54.8
2019-01-24T05:39:36.659Z,54.8
2019-01-24T05:40:26.457Z,54.8
2019-01-24T05:41:16.800Z,54.8
2019-01-24T05:42:06.324Z,54.8
2019-01-24T05:42:56.989Z,54.8
2019-01-24T05:43:46.984Z,54.8
2019-01-24T05:44:36.999Z,54.8
2019-01-24T05:45:27.084Z,54.8
2019-01-24T05:46:16.852Z,54.8
2019-01-24T05:47:07.212Z,54.8
2019-01-24T05:47:57.244Z,54.8
2019-01-24T05:48:46.726Z,54.8
2019-01-24T05:49:37.060Z,54.8
2019-01-24T05:50:28.678Z,54.7
2019-01-24T05:51:17.445Z,54.8
2019-01-24T05:52:07.528Z,54.7
2019-01-24T05:52:57.024Z,54.7
2019-01-24T05:53:47.680Z,54.7
2019-01-24T05:54:37.148Z,54.7
2019-01-24T05:55:27.186Z,54.7
2019-01-24T05:56:17.518Z,54.7
2019-01-24T05:57:07.592Z,54.7
2019-01-24T05:57:57.942Z,54.7
2019-01-24T05:58:47.699Z,54.7
2019-01-24T05:59:38.032Z,54.7
2019-01-24T06:00:27.270Z,54.6
2019-01-24T06:01:18.140Z,54.7
2019-01-24T06:02:08.205Z,54.6
2019-01-24T06:02:58.241Z,54.6
2019-01-24T06:03:48.306Z,54.6
2019-01-24T06:04:38.379Z,54.6
2019-01-24T06:06:36.117Z,54.6
2019-01-24T06:07:27.390Z,54.6
2019-01-24T06:08:15.972Z,54.6
2019-01-24T06:09:06.287Z,54.6
2019-01-24T06:09:56.339Z,54.6
2019-01-24T06:10:46.146Z,54.6
2019-01-24T06:11:36.172Z,54.6
2019-01-24T06:12:26.503Z,54.6
2019-01-24T06:13:16.339Z,54.6
2019-01-24T06:14:06.614Z,54.6
2019-01-24T06:14:56.452Z,54.6
2019-01-24T06:15:46.457Z,54.6
2019-01-24T06:16:36.250Z,54.6
2019-01-24T06:17:26.569Z,54.6
2019-01-24T06:18:16.644Z,54.6
2019-01-24T06:19:06.992Z,54.5
2019-01-24T06:19:56.788Z,54.5
2019-01-24T06:20:46.554Z,54.6
2019-01-24T06:21:37.152Z,54.5
2019-01-24T06:22:27.216Z,54.5
2019-01-24T06:23:16.854Z,54.5
2019-01-24T06:24:07.034Z,54.5
2019-01-24T06:24:57.363Z,54.5
2019-01-24T06:25:46.901Z,54.5
2019-01-24T06:26:37.484Z,54.4
2019-01-24T06:27:27.536Z,54.5
2019-01-24T06:28:17.348Z,54.5
2019-01-24T06:29:07.938Z,54.5
2019-01-24T06:29:57.721Z,54.4
2019-01-24T06:30:47.484Z,54.4
2019-01-24T06:31:37.541Z,54.4
2019-01-24T06:32:27.903Z,54.4
2019-01-24T06:33:17.664Z,54.4
2019-01-24T06:34:08.027Z,54.4
2019-01-24T06:34:57.516Z,54.4
2019-01-24T06:35:53.373Z,54.4
2019-01-24T06:36:38.192Z,54.4
2019-01-24T06:37:27.693Z,54.4
2019-01-24T06:38:17.988Z,54.4
2019-01-24T06:39:08.325Z,54.4
2019-01-24T06:39:58.145Z,54.4
2019-01-24T06:40:48.163Z,54.4
2019-01-24T06:41:37.970Z,54.4
2019-01-24T06:42:28.007Z,54.4
2019-01-24T06:43:18.077Z,54.4
2019-01-24T06:44:08.666Z,54.4
2019-01-24T06:44:58.722Z,54.4
2019-01-24T06:45:48.520Z,54.4
2019-01-24T06:46:38.322Z,54.4
2019-01-24T06:47:28.640Z,54.4
2019-01-24T06:48:18.435Z,54.4
2019-01-24T06:49:09.019Z,54.3
2019-01-24T06:49:58.853Z,54.3
2019-01-24T06:50:49.137Z,54.3
2019-01-24T06:51:38.914Z,54.3
2019-01-24T06:52:29.234Z,54.3
2019-01-24T06:53:18.742Z,54.3
2019-01-24T06:54:09.062Z,54.3
2019-01-24T06:54:59.399Z,54.3
2019-01-24T06:55:49.199Z,54.3
2019-01-24T06:56:38.744Z,54.3
2019-01-24T06:57:29.357Z,54.3
2019-01-24T06:58:19.648Z,54.3
2019-01-24T06:59:09.154Z,54.3
2019-01-24T06:59:59.204Z,54.3
2019-01-24T07:00:49.541Z,54.3
2019-01-24T07:01:39.602Z,54.3
2019-01-24T07:02:29.089Z,54.3
2019-01-24T07:03:19.724Z,54.3
2019-01-24T07:04:09.763Z,54.3
2019-01-24T07:06:35.741Z,54.3
2019-01-24T07:07:24.966Z,54.2
2019-01-24T07:08:16.141Z,54.2
2019-01-24T07:09:05.918Z,54.2
2019-01-24T07:09:55.987Z,54.2
2019-01-24T07:10:46.043Z,54.2
2019-01-24T07:11:35.808Z,54.2
2019-01-24T07:12:26.438Z,54.2
2019-01-24T07:13:16.208Z,54.2
2019-01-24T07:14:06.263Z,54.2
2019-01-24T07:14:56.326Z,54.2
2019-01-24T07:15:46.383Z,54.1
2019-01-24T07:16:36.196Z,54.1
2019-01-24T07:17:25.998Z,54.1
2019-01-24T07:18:16.818Z,54.1
2019-01-24T07:19:06.336Z,54.1
2019-01-24T07:19:56.680Z,54.1
2019-01-24T07:20:46.720Z,54.1
2019-01-24T07:21:36.770Z,54.1
2019-01-24T07:22:27.110Z,54.1
2019-01-24T07:23:16.878Z,54.1
2019-01-24T07:24:06.716Z,54.1
2019-01-24T07:24:57.292Z,54.1
2019-01-24T07:25:46.788Z,54.1
2019-01-24T07:26:37.117Z,54.1
2019-01-24T07:27:27.179Z,54.1
2019-01-24T07:28:16.982Z,54.1
2019-01-24T07:29:06.745Z,54.1
2019-01-24T07:29:57.349Z,54.1
2019-01-24T07:30:47.187Z,54.1
2019-01-24T07:31:37.497Z,54.1
2019-01-24T07:32:27.523Z,54.1
2019-01-24T07:33:17.309Z,54
2019-01-24T07:34:07.912Z,54.1
2019-01-24T07:34:57.142Z,54
2019-01-24T07:35:47.487Z,54
2019-01-24T07:36:37.817Z,54
2019-01-24T07:37:28.194Z,54
2019-01-24T07:38:17.919Z,54
2019-01-24T07:39:08.254Z,54
2019-01-24T07:39:58.301Z,54
2019-01-24T07:40:47.820Z,54
2019-01-24T07:41:37.872Z,54
2019-01-24T07:42:27.109Z,54
2019-01-24T07:43:19.344Z,54
2019-01-24T07:44:08.341Z,54
2019-01-24T07:44:58.118Z,54
2019-01-24T07:45:48.442Z,54
2019-01-24T07:46:38.508Z,53.9
2019-01-24T07:47:27.993Z,53.9
2019-01-24T07:48:18.618Z,53.9
2019-01-24T07:49:08.122Z,53.9
2019-01-24T07:49:58.174Z,53.9
2019-01-24T07:50:49.061Z,53.9
2019-01-24T07:51:38.548Z,53.9
2019-01-24T07:52:29.181Z,53.9
2019-01-24T07:53:18.687Z,53.9
2019-01-24T07:54:08.176Z,53.9
2019-01-24T07:54:59.353Z,53.9
2019-01-24T07:55:49.403Z,53.9
2019-01-24T07:56:39.211Z,53.9
2019-01-24T07:57:28.691Z,53.9
2019-01-24T07:58:19.403Z,53.9
2019-01-24T07:59:09.632Z,53.9
2019-01-24T07:59:59.695Z,53.9
2019-01-24T08:00:48.918Z,53.9
2019-01-24T08:01:39.523Z,53.9
2019-01-24T08:02:29.294Z,53.8
2019-01-24T08:03:19.103Z,53.8
2019-01-24T08:04:10.020Z,53.9
2019-01-24T08:04:59.750Z,53.8
2019-01-24T08:05:50.101Z,53.8
2019-01-24T08:06:39.588Z,53.8
2019-01-24T08:07:29.660Z,53.8
2019-01-24T08:08:19.159Z,53.8
2019-01-24T08:09:10.324Z,53.8
2019-01-24T08:10:00.188Z,53.8
2019-01-24T08:10:49.880Z,53.8
2019-01-24T08:11:39.942Z,53.8
2019-01-24T08:12:30.274Z,53.8
2019-01-24T08:13:20.059Z,53.8
2019-01-24T08:14:10.662Z,53.8
2019-01-24T08:15:00.182Z,53.8
2019-01-24T08:15:50.235Z,53.8
2019-01-24T08:16:40.884Z,53.8
2019-01-24T08:17:30.046Z,53.8
2019-01-24T08:18:20.417Z,53.8
2019-01-24T08:19:10.472Z,53.8
2019-01-24T08:20:00.248Z,53.8
2019-01-24T08:20:50.859Z,53.8
2019-01-24T08:21:40.891Z,53.7
2019-01-24T08:22:31.262Z,53.7
2019-01-24T08:23:21.305Z,53.7
2019-01-24T08:24:11.081Z,53.7
2019-01-24T08:25:00.939Z,53.7
2019-01-24T08:25:51.453Z,53.7
2019-01-24T08:26:41.526Z,53.7
2019-01-24T08:27:33.036Z,53.7
2019-01-24T08:28:21.366Z,53.7
2019-01-24T08:29:11.211Z,53.7
2019-01-24T08:30:00.936Z,53.7
2019-01-24T08:30:51.261Z,53.6
2019-01-24T08:31:41.311Z,53.6
2019-01-24T08:32:31.373Z,53.6
2019-01-24T08:33:21.719Z,53.6
2019-01-24T08:34:11.768Z,53.6
2019-01-24T08:35:02.103Z,53.6
2019-01-24T08:35:51.610Z,53.6
2019-01-24T08:36:41.936Z,53.6
2019-01-24T08:37:31.718Z,53.6
2019-01-24T08:38:21.778Z,53.6
2019-01-24T08:39:12.096Z,53.6
2019-01-24T08:40:01.675Z,53.6
2019-01-24T08:40:51.940Z,53.6
2019-01-24T08:41:42.278Z,53.6
2019-01-24T08:42:32.069Z,53.6
2019-01-24T08:43:22.115Z,53.6
2019-01-24T08:44:12.226Z,53.6
2019-01-24T08:45:02.523Z,53.6
2019-01-24T08:45:52.007Z,53.6
2019-01-24T08:46:42.363Z,53.6
2019-01-24T08:47:32.405Z,53.6
2019-01-24T08:48:22.745Z,53.6
2019-01-24T08:49:12.790Z,53.5
2019-01-24T08:50:02.870Z,53.5
2019-01-24T08:50:52.910Z,53.5
2019-01-24T08:51:43.005Z,53.5
2019-01-24T08:52:33.076Z,53.5
2019-01-24T08:53:23.417Z,53.5
2019-01-24T08:54:13.187Z,53.5
2019-01-24T08:55:03.002Z,53.5
2019-01-24T08:55:53.254Z,53.5
2019-01-24T08:56:43.309Z,53.5
2019-01-24T08:57:33.382Z,53.4
2019-01-24T08:58:23.162Z,53.4
2019-01-24T08:59:13.182Z,53.4
2019-01-24T09:00:03.437Z,53.4
2019-01-24T09:00:53.354Z,53.4
2019-01-24T09:01:43.661Z,53.4
2019-01-24T09:02:33.736Z,53.4
2019-01-24T09:03:23.757Z,53.4
2019-01-24T09:04:14.103Z,53.4
2019-01-24T09:05:03.884Z,53.4
2019-01-24T09:05:53.931Z,53.4
2019-01-24T09:06:43.504Z,53.4
2019-01-24T09:07:34.083Z,53.4
2019-01-24T09:08:23.831Z,53.4
2019-01-24T09:09:14.436Z,53.4
2019-01-24T09:10:04.354Z,53.4
2019-01-24T09:10:53.731Z,53.4
2019-01-24T09:11:44.338Z,53.4
2019-01-24T09:12:35.074Z,53.4
2019-01-24T09:13:24.182Z,53.4
2019-01-24T09:14:14.508Z,53.4
2019-01-24T09:15:04.516Z,53.4
2019-01-24T09:15:54.328Z,53.4
2019-01-24T09:16:44.671Z,53.4
2019-01-24T09:17:35.023Z,53.3
2019-01-24T09:18:25.096Z,53.4
2019-01-24T09:19:14.855Z,53.3
2019-01-24T09:20:04.742Z,53.3
2019-01-24T09:20:54.953Z,53.3
2019-01-24T09:21:45.310Z,53.3
2019-01-24T09:22:35.083Z,53.3
2019-01-24T09:23:25.439Z,53.3
2019-01-24T09:24:15.480Z,53.3
2019-01-24T09:25:05.561Z,53.3
2019-01-24T09:25:54.783Z,53.3
2019-01-24T09:26:45.485Z,53.3
2019-01-24T09:27:35.905Z,53.3
2019-01-24T09:28:25.457Z,53.3
2019-01-24T09:29:15.540Z,53.3
2019-01-24T09:30:04.865Z,53.3
2019-01-24T09:30:55.387Z,53.3
2019-01-24T09:31:45.472Z,53.3
2019-01-24T09:32:35.510Z,53.3
2019-01-24T09:33:25.589Z,53.3
2019-01-24T09:34:15.594Z,53.3
2019-01-24T09:35:05.987Z,53.2
2019-01-24T09:35:55.717Z,53.2
2019-01-24T09:36:46.097Z,53.2
2019-01-24T09:37:35.281Z,53.2
2019-01-24T09:38:26.446Z,53.2
2019-01-24T09:39:15.959Z,53.2
2019-01-24T09:40:06.281Z,53.2
2019-01-24T09:40:56.059Z,53.2
2019-01-24T09:41:46.714Z,53.2
2019-01-24T09:42:36.179Z,53.2
2019-01-24T09:43:25.744Z,53.2
2019-01-24T09:44:16.284Z,53.2
2019-01-24T09:45:05.802Z,53.2
2019-01-24T09:45:56.454Z,53.1
2019-01-24T09:46:47.019Z,53.1
2019-01-24T09:47:37.091Z,53.1
2019-01-24T09:48:26.106Z,53.1
2019-01-24T09:49:16.353Z,53.1
2019-01-24T09:50:06.957Z,53.1
2019-01-24T09:50:57.304Z,53.1
2019-01-24T09:51:46.593Z,53.1
2019-01-24T09:52:37.151Z,53.1
2019-01-24T09:53:27.473Z,53.1
2019-01-24T09:54:16.986Z,53.1
2019-01-24T09:55:07.961Z,53.1
2019-01-24T09:55:57.368Z,53.1
2019-01-24T09:56:47.433Z,53.1
2019-01-24T09:57:36.648Z,53.1
2019-01-24T09:58:27.547Z,53.1
2019-01-24T09:59:17.873Z,53.1
2019-01-24T10:00:07.663Z,53.1
2019-01-24T10:00:57.518Z,53
2019-01-24T10:01:47.503Z,53.1
2019-01-24T10:02:37.835Z,53.1
2019-01-24T10:03:27.890Z,53
2019-01-24T10:04:17.490Z,53
2019-01-24T10:05:08.286Z,53
2019-01-24T10:07:35.060Z,53
2019-01-24T10:08:25.207Z,53
2019-01-24T10:09:15.709Z,53
2019-01-24T10:10:05.059Z,53
2019-01-24T10:10:55.122Z,53
2019-01-24T10:11:44.920Z,52.9
2019-01-24T10:12:35.450Z,52.9
2019-01-24T10:13:26.034Z,52.9
2019-01-24T10:14:16.085Z,52.9
2019-01-24T10:15:05.559Z,52.9
2019-01-24T10:15:55.630Z,52.9
2019-01-24T10:16:46.282Z,52.9
2019-01-24T10:17:37.672Z,52.9
2019-01-24T10:18:26.402Z,52.9
2019-01-24T10:19:15.838Z,52.9
2019-01-24T10:20:06.466Z,52.9
2019-01-24T10:20:55.964Z,52.9
2019-01-24T10:21:46.367Z,52.9
2019-01-24T10:22:36.937Z,52.9
2019-01-24T10:23:26.461Z,52.9
2019-01-24T10:24:16.270Z,52.9
2019-01-24T10:25:06.422Z,52.9
2019-01-24T10:25:56.376Z,52.9
2019-01-24T10:26:46.757Z,52.9
2019-01-24T10:27:36.456Z,52.9
2019-01-24T10:28:27.296Z,52.9
2019-01-24T10:29:15.756Z,52.8
2019-01-24T10:30:06.666Z,52.9
2019-01-24T10:30:56.488Z,52.8
2019-01-24T10:31:48.436Z,52.8
2019-01-24T10:32:36.278Z,52.8
2019-01-24T10:33:26.878Z,52.8
2019-01-24T10:34:16.676Z,52.8
2019-01-24T10:35:06.486Z,52.8
2019-01-24T10:35:56.508Z,52.8
2019-01-24T10:36:47.083Z,52.8
2019-01-24T10:37:36.906Z,52.8
2019-01-24T10:38:27.220Z,52.8
2019-01-24T10:39:17.347Z,52.8
2019-01-24T10:40:06.873Z,52.8
2019-01-24T10:40:57.695Z,52.8
2019-01-24T10:41:47.262Z,52.8
2019-01-24T10:42:37.795Z,52.8
2019-01-24T10:43:27.580Z,52.8
2019-01-24T10:44:17.622Z,52.8
2019-01-24T10:45:07.690Z,52.8
2019-01-24T10:45:57.450Z,52.8
2019-01-24T10:46:47.517Z,52.8
2019-01-24T10:47:37.845Z,52.8
2019-01-24T10:48:28.189Z,52.7
2019-01-24T10:49:17.980Z,52.7
2019-01-24T10:50:07.767Z,52.8
2019-01-24T10:50:58.383Z,52.7
2019-01-24T10:51:47.594Z,52.7
2019-01-24T10:52:38.224Z,52.7
2019-01-24T10:53:28.267Z,52.7
2019-01-24T10:54:18.330Z,52.7
2019-01-24T10:55:15.014Z,52.7
2019-01-24T10:55:58.713Z,52.7
2019-01-24T10:56:47.949Z,52.7
2019-01-24T10:57:38.832Z,52.6
2019-01-24T10:58:28.629Z,52.7
2019-01-24T10:59:18.704Z,52.6
2019-01-24T11:00:08.466Z,52.6
2019-01-24T11:00:58.527Z,52.7
2019-01-24T11:01:48.834Z,52.6
2019-01-24T11:02:39.173Z,52.6
2019-01-24T11:03:29.161Z,52.6
2019-01-24T11:04:19.021Z,52.6
2019-01-24T11:05:09.281Z,52.6
2019-01-24T11:05:59.141Z,52.6
2019-01-24T11:06:53.831Z,52.6
2019-01-24T11:07:39.716Z,52.6
2019-01-24T11:08:29.226Z,52.6
2019-01-24T11:09:19.631Z,52.6
2019-01-24T11:10:10.948Z,52.6
2019-01-24T11:10:59.498Z,52.6
2019-01-24T11:11:50.285Z,52.6
2019-01-24T11:12:39.778Z,52.6
2019-01-24T11:13:29.152Z,52.6
2019-01-24T11:14:19.658Z,52.6
2019-01-24T11:15:09.201Z,52.6
2019-01-24T11:16:00.291Z,52.6
2019-01-24T11:16:49.866Z,52.6